sensor_id;sensor_type;location;lat;lon;timestamp;temperature;humidity
27384;DHT22;14851;51.166;4.760;2023-05-10T00:00:45;13.80;99.90
27384;DHT22;14851;51.166;4.760;2023-05-10T00:03:11;13.80;99.90
27384;DHT22;14851;51.166;4.760;2023-05-10T00:05:40;13.70;99.90
27384;DHT22;14851;51.166;4.760;2023-05-10T00:08:06;13.70;99.90
27384;DHT22;14851;51.166;4.760;2023-05-10T00:10:31;13.70;99.90
27384;DHT22;14851;51.166;4.760;2023-05-10T00:12:57;13.70;99.90
27384;DHT22;14851;51.166;4.760;2023-05-10T00:15:23;13.70;99.90
27384;DHT22;14851;51.166;4.760;2023-05-10T00:17:52;13.70;99.90
27384;DHT22;14851;51.166;4.760;2023-05-10T00:20:17;13.70;99.90
27384;DHT22;14851;51.166;4.760;2023-05-10T00:22:43;13.70;99.90
27384;DHT22;14851;51.166;4.760;2023-05-10T00:25:09;13.70;99.90
27384;DHT22;14851;51.166;4.760;2023-05-10T00:27:36;13.60;99.90
27384;DHT22;14851;51.166;4.760;2023-05-10T00:30:02;13.60;99.90
27384;DHT22;14851;51.166;4.760;2023-05-10T00:32:28;13.60;99.90
27384;DHT22;14851;51.166;4.760;2023-05-10T00:34:57;13.60;99.90
27384;DHT22;14851;51.166;4.760;2023-05-10T00:37:23;13.60;99.90
27384;DHT22;14851;51.166;4.760;2023-05-10T00:39:49;13.60;99.90
27384;DHT22;14851;51.166;4.760;2023-05-10T00:42:15;13.60;99.90
27384;DHT22;14851;51.166;4.760;2023-05-10T00:44:41;13.60;99.90
27384;DHT22;14851;51.166;4.760;2023-05-10T00:47:07;13.60;99.90
27384;DHT22;14851;51.166;4.760;2023-05-10T00:49:36;13.60;99.90
27384;DHT22;14851;51.166;4.760;2023-05-10T00:52:02;13.60;99.90
27384;DHT22;14851;51.166;4.760;2023-05-10T00:54:29;13.60;99.90
27384;DHT22;14851;51.166;4.760;2023-05-10T00:56:55;13.60;99.90
27384;DHT22;14851;51.166;4.760;2023-05-10T00:59:22;13.60;99.90
27384;DHT22;14851;51.166;4.760;2023-05-10T01:01:49;13.60;99.90
27384;DHT22;14851;51.166;4.760;2023-05-10T01:04:15;13.60;99.90
27384;DHT22;14851;51.166;4.760;2023-05-10T01:06:45;13.60;99.90
27384;DHT22;14851;51.166;4.760;2023-05-10T01:09:13;13.60;99.90
27384;DHT22;14851;51.166;4.760;2023-05-10T01:11:43;13.60;99.90
27384;DHT22;14851;51.166;4.760;2023-05-10T01:14:10;13.50;99.90
27384;DHT22;14851;51.166;4.760;2023-05-10T01:16:44;13.60;99.90
27384;DHT22;14851;51.166;4.760;2023-05-10T01:19:26;13.60;99.90
27384;DHT22;14851;51.166;4.760;2023-05-10T01:33:54;13.50;99.90
27384;DHT22;14851;51.166;4.760;2023-05-10T01:37:11;13.50;99.90
27384;DHT22;14851;51.166;4.760;2023-05-10T01:39:47;13.50;99.90
27384;DHT22;14851;51.166;4.760;2023-05-10T01:42:21;13.50;99.90
27384;DHT22;14851;51.166;4.760;2023-05-10T01:47:54;13.50;99.90
27384;DHT22;14851;51.166;4.760;2023-05-10T01:50:28;13.50;99.90
27384;DHT22;14851;51.166;4.760;2023-05-10T01:52:57;13.50;99.90
27384;DHT22;14851;51.166;4.760;2023-05-10T01:55:30;13.50;99.90
27384;DHT22;14851;51.166;4.760;2023-05-10T01:58:09;13.50;99.90
27384;DHT22;14851;51.166;4.760;2023-05-10T02:00:39;13.40;99.90
27384;DHT22;14851;51.166;4.760;2023-05-10T02:03:07;13.50;99.90
27384;DHT22;14851;51.166;4.760;2023-05-10T02:05:35;13.50;99.90
27384;DHT22;14851;51.166;4.760;2023-05-10T02:08:03;13.50;99.90
27384;DHT22;14851;51.166;4.760;2023-05-10T02:10:34;13.50;99.90
27384;DHT22;14851;51.166;4.760;2023-05-10T02:13:03;13.40;99.90
27384;DHT22;14851;51.166;4.760;2023-05-10T02:15:32;13.50;99.90
27384;DHT22;14851;51.166;4.760;2023-05-10T02:18:02;13.50;99.90
27384;DHT22;14851;51.166;4.760;2023-05-10T02:20:31;13.50;99.90
27384;DHT22;14851;51.166;4.760;2023-05-10T02:22:58;13.40;99.90
27384;DHT22;14851;51.166;4.760;2023-05-10T02:25:25;13.40;99.90
27384;DHT22;14851;51.166;4.760;2023-05-10T02:27:54;13.40;99.90
27384;DHT22;14851;51.166;4.760;2023-05-10T02:30:22;13.40;99.90
27384;DHT22;14851;51.166;4.760;2023-05-10T02:32:50;13.40;99.90
27384;DHT22;14851;51.166;4.760;2023-05-10T02:35:17;13.40;99.90
27384;DHT22;14851;51.166;4.760;2023-05-10T02:37:47;13.40;99.90
27384;DHT22;14851;51.166;4.760;2023-05-10T02:40:16;13.40;99.90
27384;DHT22;14851;51.166;4.760;2023-05-10T02:42:47;13.40;99.90
27384;DHT22;14851;51.166;4.760;2023-05-10T02:45:19;13.40;99.90
27384;DHT22;14851;51.166;4.760;2023-05-10T02:47:48;13.40;99.90
27384;DHT22;14851;51.166;4.760;2023-05-10T02:50:14;13.40;99.90
27384;DHT22;14851;51.166;4.760;2023-05-10T02:52:46;13.40;99.90
27384;DHT22;14851;51.166;4.760;2023-05-10T02:55:16;13.40;99.90
27384;DHT22;14851;51.166;4.760;2023-05-10T02:57:53;13.30;99.90
27384;DHT22;14851;51.166;4.760;2023-05-10T03:00:22;13.30;99.90
27384;DHT22;14851;51.166;4.760;2023-05-10T03:02:49;13.30;99.90
27384;DHT22;14851;51.166;4.760;2023-05-10T03:05:16;13.30;99.90
27384;DHT22;14851;51.166;4.760;2023-05-10T03:07:42;13.30;99.90
27384;DHT22;14851;51.166;4.760;2023-05-10T03:10:08;13.30;99.90
27384;DHT22;14851;51.166;4.760;2023-05-10T03:13:16;13.30;99.90
27384;DHT22;14851;51.166;4.760;2023-05-10T03:16:03;13.30;99.90
27384;DHT22;14851;51.166;4.760;2023-05-10T03:19:06;13.30;99.90
27384;DHT22;14851;51.166;4.760;2023-05-10T03:21:32;13.30;99.90
27384;DHT22;14851;51.166;4.760;2023-05-10T03:24:06;13.30;99.90
27384;DHT22;14851;51.166;4.760;2023-05-10T03:26:34;13.30;99.90
27384;DHT22;14851;51.166;4.760;2023-05-10T03:29:11;13.30;99.90
27384;DHT22;14851;51.166;4.760;2023-05-10T03:31:38;13.20;99.90
27384;DHT22;14851;51.166;4.760;2023-05-10T03:34:09;13.30;99.90
27384;DHT22;14851;51.166;4.760;2023-05-10T03:36:36;13.30;99.90
27384;DHT22;14851;51.166;4.760;2023-05-10T03:39:02;13.30;99.90
27384;DHT22;14851;51.166;4.760;2023-05-10T03:41:30;13.30;99.90
27384;DHT22;14851;51.166;4.760;2023-05-10T03:43:56;13.20;99.90
27384;DHT22;14851;51.166;4.760;2023-05-10T03:46:22;13.30;99.90
27384;DHT22;14851;51.166;4.760;2023-05-10T03:48:48;13.30;99.90
27384;DHT22;14851;51.166;4.760;2023-05-10T03:51:16;13.20;99.90
27384;DHT22;14851;51.166;4.760;2023-05-10T03:53:42;13.20;99.90
27384;DHT22;14851;51.166;4.760;2023-05-10T03:56:08;13.20;99.90
27384;DHT22;14851;51.166;4.760;2023-05-10T03:58:35;13.20;99.90
27384;DHT22;14851;51.166;4.760;2023-05-10T04:01:01;13.20;99.90
27384;DHT22;14851;51.166;4.760;2023-05-10T04:03:27;13.20;99.90
27384;DHT22;14851;51.166;4.760;2023-05-10T04:06:02;13.20;99.90
27384;DHT22;14851;51.166;4.760;2023-05-10T04:08:29;13.20;99.90
27384;DHT22;14851;51.166;4.760;2023-05-10T04:11:06;13.20;99.90
27384;DHT22;14851;51.166;4.760;2023-05-10T04:13:33;13.10;99.90
27384;DHT22;14851;51.166;4.760;2023-05-10T04:15:59;13.10;99.90
27384;DHT22;14851;51.166;4.760;2023-05-10T04:18:27;13.10;99.90
27384;DHT22;14851;51.166;4.760;2023-05-10T04:20:53;13.10;99.90
27384;DHT22;14851;51.166;4.760;2023-05-10T04:23:23;13.10;99.90
27384;DHT22;14851;51.166;4.760;2023-05-10T04:25:49;13.10;99.90
27384;DHT22;14851;51.166;4.760;2023-05-10T04:28:15;13.10;99.90
27384;DHT22;14851;51.166;4.760;2023-05-10T04:30:40;13.10;99.90
27384;DHT22;14851;51.166;4.760;2023-05-10T04:33:06;13.10;99.90
27384;DHT22;14851;51.166;4.760;2023-05-10T04:35:35;13.10;99.90
27384;DHT22;14851;51.166;4.760;2023-05-10T04:38:01;13.00;99.90
27384;DHT22;14851;51.166;4.760;2023-05-10T04:40:27;13.10;99.90
27384;DHT22;14851;51.166;4.760;2023-05-10T04:42:54;13.00;99.90
27384;DHT22;14851;51.166;4.760;2023-05-10T04:45:20;13.10;99.90
27384;DHT22;14851;51.166;4.760;2023-05-10T04:47:46;13.00;99.90
27384;DHT22;14851;51.166;4.760;2023-05-10T04:50:12;13.00;99.90
27384;DHT22;14851;51.166;4.760;2023-05-10T04:52:41;13.10;99.90
27384;DHT22;14851;51.166;4.760;2023-05-10T04:55:07;13.10;99.90
27384;DHT22;14851;51.166;4.760;2023-05-10T04:57:35;13.10;99.90
27384;DHT22;14851;51.166;4.760;2023-05-10T05:00:00;13.20;99.90
27384;DHT22;14851;51.166;4.760;2023-05-10T05:02:31;13.10;99.90
27384;DHT22;14851;51.166;4.760;2023-05-10T05:04:57;13.10;99.90
27384;DHT22;14851;51.166;4.760;2023-05-10T05:07:23;13.10;99.90
27384;DHT22;14851;51.166;4.760;2023-05-10T05:09:49;13.10;99.90
27384;DHT22;14851;51.166;4.760;2023-05-10T05:12:15;13.10;99.90
27384;DHT22;14851;51.166;4.760;2023-05-10T05:14:41;13.10;99.90
27384;DHT22;14851;51.166;4.760;2023-05-10T05:17:09;13.10;99.90
27384;DHT22;14851;51.166;4.760;2023-05-10T05:19:35;13.10;99.90
27384;DHT22;14851;51.166;4.760;2023-05-10T05:22:01;13.00;99.90
27384;DHT22;14851;51.166;4.760;2023-05-10T05:24:27;13.00;99.90
27384;DHT22;14851;51.166;4.760;2023-05-10T05:26:53;13.00;99.90
27384;DHT22;14851;51.166;4.760;2023-05-10T05:29:18;13.00;99.90
27384;DHT22;14851;51.166;4.760;2023-05-10T05:31:44;13.00;99.90
27384;DHT22;14851;51.166;4.760;2023-05-10T05:34:10;13.10;99.90
27384;DHT22;14851;51.166;4.760;2023-05-10T05:36:36;13.00;99.90
27384;DHT22;14851;51.166;4.760;2023-05-10T05:39:05;13.10;99.90
27384;DHT22;14851;51.166;4.760;2023-05-10T05:41:33;13.00;99.90
27384;DHT22;14851;51.166;4.760;2023-05-10T05:43:59;13.10;99.90
27384;DHT22;14851;51.166;4.760;2023-05-10T05:46:25;13.10;99.90
27384;DHT22;14851;51.166;4.760;2023-05-10T05:48:51;13.20;99.90
27384;DHT22;14851;51.166;4.760;2023-05-10T05:51:17;13.20;99.90
27384;DHT22;14851;51.166;4.760;2023-05-10T05:53:43;13.20;99.90
27384;DHT22;14851;51.166;4.760;2023-05-10T05:56:11;13.20;99.90
27384;DHT22;14851;51.166;4.760;2023-05-10T05:58:37;13.30;99.90
27384;DHT22;14851;51.166;4.760;2023-05-10T06:01:02;13.30;99.90
27384;DHT22;14851;51.166;4.760;2023-05-10T06:03:28;13.30;99.90
27384;DHT22;14851;51.166;4.760;2023-05-10T06:05:54;13.30;99.90
27384;DHT22;14851;51.166;4.760;2023-05-10T06:08:20;13.30;99.90
27384;DHT22;14851;51.166;4.760;2023-05-10T06:10:46;13.30;99.90
27384;DHT22;14851;51.166;4.760;2023-05-10T06:13:12;13.40;99.90
27384;DHT22;14851;51.166;4.760;2023-05-10T06:15:38;13.40;99.90
27384;DHT22;14851;51.166;4.760;2023-05-10T06:18:04;13.40;99.90
27384;DHT22;14851;51.166;4.760;2023-05-10T06:20:31;13.40;99.90
27384;DHT22;14851;51.166;4.760;2023-05-10T06:23:00;13.40;99.90
27384;DHT22;14851;51.166;4.760;2023-05-10T06:25:26;13.40;99.90
27384;DHT22;14851;51.166;4.760;2023-05-10T06:27:54;13.40;99.90
27384;DHT22;14851;51.166;4.760;2023-05-10T06:30:24;13.50;99.90
27384;DHT22;14851;51.166;4.760;2023-05-10T06:32:53;13.50;99.90
27384;DHT22;14851;51.166;4.760;2023-05-10T06:35:19;13.50;99.90
27384;DHT22;14851;51.166;4.760;2023-05-10T06:37:45;13.50;99.90
27384;DHT22;14851;51.166;4.760;2023-05-10T06:40:12;13.50;99.90
27384;DHT22;14851;51.166;4.760;2023-05-10T06:42:38;13.60;99.90
27384;DHT22;14851;51.166;4.760;2023-05-10T06:45:04;13.60;99.90
27384;DHT22;14851;51.166;4.760;2023-05-10T06:47:34;13.60;99.90
27384;DHT22;14851;51.166;4.760;2023-05-10T06:50:02;13.70;99.90
27384;DHT22;14851;51.166;4.760;2023-05-10T06:52:28;13.60;99.90
27384;DHT22;14851;51.166;4.760;2023-05-10T06:54:54;13.60;99.90
27384;DHT22;14851;51.166;4.760;2023-05-10T06:57:20;13.60;99.90
27384;DHT22;14851;51.166;4.760;2023-05-10T06:59:47;13.60;99.90
27384;DHT22;14851;51.166;4.760;2023-05-10T07:02:12;13.70;99.90
27384;DHT22;14851;51.166;4.760;2023-05-10T07:04:40;13.70;99.90
27384;DHT22;14851;51.166;4.760;2023-05-10T07:07:06;13.70;99.90
27384;DHT22;14851;51.166;4.760;2023-05-10T07:09:32;13.70;99.90
27384;DHT22;14851;51.166;4.760;2023-05-10T07:12:00;13.70;99.90
27384;DHT22;14851;51.166;4.760;2023-05-10T07:14:28;13.60;99.90
27384;DHT22;14851;51.166;4.760;2023-05-10T07:16:53;13.70;99.90
27384;DHT22;14851;51.166;4.760;2023-05-10T07:19:19;13.70;99.90
27384;DHT22;14851;51.166;4.760;2023-05-10T07:21:45;13.70;99.90
27384;DHT22;14851;51.166;4.760;2023-05-10T07:24:11;13.70;99.90
27384;DHT22;14851;51.166;4.760;2023-05-10T07:26:38;13.80;99.90
27384;DHT22;14851;51.166;4.760;2023-05-10T07:29:04;13.80;99.90
27384;DHT22;14851;51.166;4.760;2023-05-10T07:31:30;13.80;99.90
27384;DHT22;14851;51.166;4.760;2023-05-10T07:33:56;13.90;99.90
27384;DHT22;14851;51.166;4.760;2023-05-10T07:36:22;13.90;99.90
27384;DHT22;14851;51.166;4.760;2023-05-10T07:38:47;13.90;99.90
27384;DHT22;14851;51.166;4.760;2023-05-10T07:41:14;13.90;99.90
27384;DHT22;14851;51.166;4.760;2023-05-10T07:43:41;13.90;99.90
27384;DHT22;14851;51.166;4.760;2023-05-10T07:46:07;13.90;99.90
27384;DHT22;14851;51.166;4.760;2023-05-10T07:48:33;13.90;99.90
27384;DHT22;14851;51.166;4.760;2023-05-10T07:50:59;13.80;99.90
27384;DHT22;14851;51.166;4.760;2023-05-10T07:53:26;13.80;99.90
27384;DHT22;14851;51.166;4.760;2023-05-10T07:55:57;13.80;99.90
27384;DHT22;14851;51.166;4.760;2023-05-10T07:58:25;13.90;99.90
27384;DHT22;14851;51.166;4.760;2023-05-10T08:00:54;13.90;99.90
27384;DHT22;14851;51.166;4.760;2023-05-10T08:03:23;13.90;99.90
27384;DHT22;14851;51.166;4.760;2023-05-10T08:05:48;14.00;99.90
27384;DHT22;14851;51.166;4.760;2023-05-10T08:08:14;14.00;99.90
27384;DHT22;14851;51.166;4.760;2023-05-10T08:10:40;14.00;99.90
27384;DHT22;14851;51.166;4.760;2023-05-10T08:13:07;14.00;99.90
27384;DHT22;14851;51.166;4.760;2023-05-10T08:15:33;14.10;99.90
27384;DHT22;14851;51.166;4.760;2023-05-10T08:18:01;14.10;99.90
27384;DHT22;14851;51.166;4.760;2023-05-10T08:20:29;14.00;99.90
27384;DHT22;14851;51.166;4.760;2023-05-10T08:22:55;14.10;99.90
27384;DHT22;14851;51.166;4.760;2023-05-10T08:25:22;14.10;99.90
27384;DHT22;14851;51.166;4.760;2023-05-10T08:27:48;14.10;99.90
27384;DHT22;14851;51.166;4.760;2023-05-10T08:30:14;14.10;99.90
27384;DHT22;14851;51.166;4.760;2023-05-10T08:32:39;14.10;99.90
27384;DHT22;14851;51.166;4.760;2023-05-10T08:35:07;14.10;99.90
27384;DHT22;14851;51.166;4.760;2023-05-10T08:37:36;14.10;99.90
27384;DHT22;14851;51.166;4.760;2023-05-10T08:40:02;14.10;99.90
27384;DHT22;14851;51.166;4.760;2023-05-10T08:42:30;14.20;99.90
27384;DHT22;14851;51.166;4.760;2023-05-10T08:44:57;14.30;99.90
27384;DHT22;14851;51.166;4.760;2023-05-10T08:47:25;14.30;99.90
27384;DHT22;14851;51.166;4.760;2023-05-10T08:49:51;14.30;99.90
27384;DHT22;14851;51.166;4.760;2023-05-10T08:52:18;14.30;99.90
27384;DHT22;14851;51.166;4.760;2023-05-10T08:54:44;14.30;99.90
27384;DHT22;14851;51.166;4.760;2023-05-10T08:57:12;14.30;99.90
27384;DHT22;14851;51.166;4.760;2023-05-10T08:59:43;14.30;99.90
27384;DHT22;14851;51.166;4.760;2023-05-10T09:02:10;14.30;99.90
27384;DHT22;14851;51.166;4.760;2023-05-10T09:04:37;14.30;99.90
27384;DHT22;14851;51.166;4.760;2023-05-10T09:07:03;14.30;99.90
27384;DHT22;14851;51.166;4.760;2023-05-10T09:09:31;14.30;99.90
27384;DHT22;14851;51.166;4.760;2023-05-10T09:11:57;14.30;99.90
27384;DHT22;14851;51.166;4.760;2023-05-10T09:14:24;14.20;99.90
27384;DHT22;14851;51.166;4.760;2023-05-10T09:16:50;14.20;99.90
27384;DHT22;14851;51.166;4.760;2023-05-10T09:19:19;14.20;99.90
27384;DHT22;14851;51.166;4.760;2023-05-10T09:21:45;14.30;99.90
27384;DHT22;14851;51.166;4.760;2023-05-10T09:24:13;14.30;99.90
27384;DHT22;14851;51.166;4.760;2023-05-10T09:26:48;14.40;99.90
27384;DHT22;14851;51.166;4.760;2023-05-10T09:29:14;14.40;99.90
27384;DHT22;14851;51.166;4.760;2023-05-10T09:31:45;14.50;99.90
27384;DHT22;14851;51.166;4.760;2023-05-10T09:34:17;14.50;99.90
27384;DHT22;14851;51.166;4.760;2023-05-10T09:36:56;14.60;99.90
27384;DHT22;14851;51.166;4.760;2023-05-10T09:42:05;14.70;99.90
27384;DHT22;14851;51.166;4.760;2023-05-10T09:44:32;14.70;99.90
27384;DHT22;14851;51.166;4.760;2023-05-10T09:46:59;14.80;99.90
27384;DHT22;14851;51.166;4.760;2023-05-10T09:49:25;14.70;99.90
27384;DHT22;14851;51.166;4.760;2023-05-10T09:52:04;14.80;99.90
27384;DHT22;14851;51.166;4.760;2023-05-10T09:54:34;14.90;99.90
27384;DHT22;14851;51.166;4.760;2023-05-10T09:57:03;14.90;99.90
27384;DHT22;14851;51.166;4.760;2023-05-10T09:59:33;15.10;99.90
27384;DHT22;14851;51.166;4.760;2023-05-10T10:02:00;15.20;99.90
27384;DHT22;14851;51.166;4.760;2023-05-10T10:04:26;15.20;99.90
27384;DHT22;14851;51.166;4.760;2023-05-10T10:07:02;15.20;99.90
27384;DHT22;14851;51.166;4.760;2023-05-10T10:09:29;15.20;99.90
27384;DHT22;14851;51.166;4.760;2023-05-10T10:11:57;15.20;99.90
27384;DHT22;14851;51.166;4.760;2023-05-10T10:14:29;15.10;99.90
27384;DHT22;14851;51.166;4.760;2023-05-10T10:16:55;14.90;99.90
27384;DHT22;14851;51.166;4.760;2023-05-10T10:19:22;14.90;99.90
27384;DHT22;14851;51.166;4.760;2023-05-10T10:21:49;14.80;99.90
27384;DHT22;14851;51.166;4.760;2023-05-10T10:24:15;14.80;99.90
27384;DHT22;14851;51.166;4.760;2023-05-10T10:26:46;14.80;99.90
27384;DHT22;14851;51.166;4.760;2023-05-10T10:29:29;14.80;99.90
27384;DHT22;14851;51.166;4.760;2023-05-10T10:34:49;15.00;99.90
27384;DHT22;14851;51.166;4.760;2023-05-10T10:37:15;15.00;99.90
27384;DHT22;14851;51.166;4.760;2023-05-10T10:39:41;15.00;99.90
27384;DHT22;14851;51.166;4.760;2023-05-10T10:42:07;15.00;99.90
27384;DHT22;14851;51.166;4.760;2023-05-10T10:44:33;15.00;99.90
27384;DHT22;14851;51.166;4.760;2023-05-10T10:47:22;15.00;99.90
27384;DHT22;14851;51.166;4.760;2023-05-10T10:57:54;15.10;99.90
27384;DHT22;14851;51.166;4.760;2023-05-10T11:00:36;15.20;99.90
27384;DHT22;14851;51.166;4.760;2023-05-10T11:05:44;15.40;99.90
27384;DHT22;14851;51.166;4.760;2023-05-10T11:08:28;15.40;99.90
27384;DHT22;14851;51.166;4.760;2023-05-10T11:13:48;15.40;99.90
27384;DHT22;14851;51.166;4.760;2023-05-10T11:16:24;15.40;99.90
27384;DHT22;14851;51.166;4.760;2023-05-10T11:18:58;15.40;99.90
27384;DHT22;14851;51.166;4.760;2023-05-10T11:21:28;15.40;99.90
27384;DHT22;14851;51.166;4.760;2023-05-10T11:23:55;15.40;99.90
27384;DHT22;14851;51.166;4.760;2023-05-10T11:26:23;15.40;99.90
27384;DHT22;14851;51.166;4.760;2023-05-10T11:28:52;15.40;99.90
27384;DHT22;14851;51.166;4.760;2023-05-10T11:31:20;15.50;99.90
27384;DHT22;14851;51.166;4.760;2023-05-10T11:33:51;15.40;99.90
27384;DHT22;14851;51.166;4.760;2023-05-10T11:36:19;15.50;99.90
27384;DHT22;14851;51.166;4.760;2023-05-10T11:38:48;15.50;99.90
27384;DHT22;14851;51.166;4.760;2023-05-10T11:41:16;15.50;99.90
27384;DHT22;14851;51.166;4.760;2023-05-10T11:43:47;15.50;99.90
27384;DHT22;14851;51.166;4.760;2023-05-10T11:46:15;15.60;99.90
27384;DHT22;14851;51.166;4.760;2023-05-10T11:48:42;15.50;99.90
27384;DHT22;14851;51.166;4.760;2023-05-10T11:51:09;15.60;99.90
27384;DHT22;14851;51.166;4.760;2023-05-10T11:53:36;15.70;99.90
27384;DHT22;14851;51.166;4.760;2023-05-10T11:56:10;15.70;99.90
27384;DHT22;14851;51.166;4.760;2023-05-10T11:58:39;15.70;99.90
27384;DHT22;14851;51.166;4.760;2023-05-10T12:01:10;15.80;99.90
27384;DHT22;14851;51.166;4.760;2023-05-10T12:03:37;15.80;99.90
27384;DHT22;14851;51.166;4.760;2023-05-10T12:06:04;15.90;99.90
27384;DHT22;14851;51.166;4.760;2023-05-10T12:08:30;15.90;99.90
27384;DHT22;14851;51.166;4.760;2023-05-10T12:11:09;16.00;99.90
27384;DHT22;14851;51.166;4.760;2023-05-10T12:13:40;16.00;99.90
27384;DHT22;14851;51.166;4.760;2023-05-10T12:16:20;16.10;99.90
27384;DHT22;14851;51.166;4.760;2023-05-10T12:18:50;16.10;99.90
27384;DHT22;14851;51.166;4.760;2023-05-10T12:21:16;16.10;99.90
27384;DHT22;14851;51.166;4.760;2023-05-10T12:23:45;16.20;99.90
27384;DHT22;14851;51.166;4.760;2023-05-10T12:26:11;16.10;99.90
27384;DHT22;14851;51.166;4.760;2023-05-10T12:28:38;16.20;99.90
27384;DHT22;14851;51.166;4.760;2023-05-10T12:31:06;16.20;99.90
27384;DHT22;14851;51.166;4.760;2023-05-10T12:33:40;16.20;99.90
27384;DHT22;14851;51.166;4.760;2023-05-10T12:36:13;16.20;99.90
27384;DHT22;14851;51.166;4.760;2023-05-10T12:38:44;16.30;99.90
27384;DHT22;14851;51.166;4.760;2023-05-10T12:41:17;16.30;99.90
27384;DHT22;14851;51.166;4.760;2023-05-10T12:43:43;16.30;99.90
27384;DHT22;14851;51.166;4.760;2023-05-10T12:46:14;16.30;99.90
27384;DHT22;14851;51.166;4.760;2023-05-10T12:48:42;16.30;99.90
27384;DHT22;14851;51.166;4.760;2023-05-10T12:51:09;16.40;99.90
27384;DHT22;14851;51.166;4.760;2023-05-10T12:53:40;16.40;99.90
27384;DHT22;14851;51.166;4.760;2023-05-10T12:56:06;16.40;99.90
27384;DHT22;14851;51.166;4.760;2023-05-10T12:58:32;16.50;99.90
27384;DHT22;14851;51.166;4.760;2023-05-10T13:00:58;16.50;99.90
27384;DHT22;14851;51.166;4.760;2023-05-10T13:03:24;16.60;99.90
27384;DHT22;14851;51.166;4.760;2023-05-10T13:05:53;16.60;99.90
27384;DHT22;14851;51.166;4.760;2023-05-10T13:08:19;16.60;99.90
27384;DHT22;14851;51.166;4.760;2023-05-10T13:10:45;16.70;99.90
27384;DHT22;14851;51.166;4.760;2023-05-10T13:13:11;16.70;99.90
27384;DHT22;14851;51.166;4.760;2023-05-10T13:15:40;16.70;99.90
27384;DHT22;14851;51.166;4.760;2023-05-10T13:18:05;16.70;99.90
27384;DHT22;14851;51.166;4.760;2023-05-10T13:20:31;16.70;99.90
27384;DHT22;14851;51.166;4.760;2023-05-10T13:22:57;16.70;99.90
27384;DHT22;14851;51.166;4.760;2023-05-10T13:25:23;16.70;99.90
27384;DHT22;14851;51.166;4.760;2023-05-10T13:27:54;16.70;99.90
27384;DHT22;14851;51.166;4.760;2023-05-10T13:30:22;16.60;99.90
27384;DHT22;14851;51.166;4.760;2023-05-10T13:32:50;16.70;99.90
27384;DHT22;14851;51.166;4.760;2023-05-10T13:35:16;16.70;99.90
27384;DHT22;14851;51.166;4.760;2023-05-10T13:37:42;16.80;99.90
27384;DHT22;14851;51.166;4.760;2023-05-10T13:40:08;16.80;99.90
27384;DHT22;14851;51.166;4.760;2023-05-10T13:42:34;16.80;99.90
27384;DHT22;14851;51.166;4.760;2023-05-10T13:45:00;16.80;99.90
27384;DHT22;14851;51.166;4.760;2023-05-10T13:47:27;16.80;99.90
27384;DHT22;14851;51.166;4.760;2023-05-10T13:49:53;16.80;99.90
27384;DHT22;14851;51.166;4.760;2023-05-10T13:52:19;16.90;99.90
27384;DHT22;14851;51.166;4.760;2023-05-10T13:54:45;16.90;99.90
27384;DHT22;14851;51.166;4.760;2023-05-10T13:57:11;16.90;99.90
27384;DHT22;14851;51.166;4.760;2023-05-10T13:59:39;17.00;99.90
27384;DHT22;14851;51.166;4.760;2023-05-10T14:02:06;17.00;99.90
27384;DHT22;14851;51.166;4.760;2023-05-10T14:04:34;17.10;99.90
27384;DHT22;14851;51.166;4.760;2023-05-10T14:07:01;17.10;99.90
27384;DHT22;14851;51.166;4.760;2023-05-10T14:09:29;17.10;99.90
27384;DHT22;14851;51.166;4.760;2023-05-10T14:11:56;17.20;99.90
27384;DHT22;14851;51.166;4.760;2023-05-10T14:14:22;17.20;99.90
27384;DHT22;14851;51.166;4.760;2023-05-10T14:16:50;17.30;99.90
27384;DHT22;14851;51.166;4.760;2023-05-10T14:19:16;17.30;99.90
27384;DHT22;14851;51.166;4.760;2023-05-10T14:21:42;17.30;99.90
27384;DHT22;14851;51.166;4.760;2023-05-10T14:24:10;17.30;99.90
27384;DHT22;14851;51.166;4.760;2023-05-10T14:26:36;17.30;99.90
27384;DHT22;14851;51.166;4.760;2023-05-10T14:29:02;17.30;99.90
27384;DHT22;14851;51.166;4.760;2023-05-10T14:31:28;17.30;99.90
27384;DHT22;14851;51.166;4.760;2023-05-10T14:33:55;17.40;99.90
27384;DHT22;14851;51.166;4.760;2023-05-10T14:36:22;17.30;99.90
27384;DHT22;14851;51.166;4.760;2023-05-10T14:38:48;17.30;99.90
27384;DHT22;14851;51.166;4.760;2023-05-10T14:41:16;17.40;99.90
27384;DHT22;14851;51.166;4.760;2023-05-10T14:43:43;17.50;99.90
27384;DHT22;14851;51.166;4.760;2023-05-10T14:46:09;17.50;99.90
27384;DHT22;14851;51.166;4.760;2023-05-10T14:48:35;17.50;99.90
27384;DHT22;14851;51.166;4.760;2023-05-10T14:51:01;17.50;99.90
27384;DHT22;14851;51.166;4.760;2023-05-10T14:53:27;17.40;99.90
27384;DHT22;14851;51.166;4.760;2023-05-10T14:55:55;17.40;99.90
27384;DHT22;14851;51.166;4.760;2023-05-10T14:58:21;17.40;99.90
27384;DHT22;14851;51.166;4.760;2023-05-10T15:00:47;17.40;99.90
27384;DHT22;14851;51.166;4.760;2023-05-10T15:03:13;17.50;99.90
27384;DHT22;14851;51.166;4.760;2023-05-10T15:05:39;17.60;99.90
27384;DHT22;14851;51.166;4.760;2023-05-10T15:08:05;17.50;99.90
27384;DHT22;14851;51.166;4.760;2023-05-10T15:10:31;17.40;99.90
27384;DHT22;14851;51.166;4.760;2023-05-10T15:12:58;17.40;99.90
27384;DHT22;14851;51.166;4.760;2023-05-10T15:15:25;17.40;99.90
27384;DHT22;14851;51.166;4.760;2023-05-10T15:17:51;17.40;99.90
27384;DHT22;14851;51.166;4.760;2023-05-10T15:20:16;17.50;99.90
27384;DHT22;14851;51.166;4.760;2023-05-10T15:22:43;17.40;99.90
27384;DHT22;14851;51.166;4.760;2023-05-10T15:25:11;17.40;99.90
27384;DHT22;14851;51.166;4.760;2023-05-10T15:27:37;17.40;99.90
27384;DHT22;14851;51.166;4.760;2023-05-10T15:30:03;17.40;99.90
27384;DHT22;14851;51.166;4.760;2023-05-10T15:32:31;17.40;99.90
27384;DHT22;14851;51.166;4.760;2023-05-10T15:34:59;17.30;99.90
27384;DHT22;14851;51.166;4.760;2023-05-10T15:37:25;17.20;99.90
27384;DHT22;14851;51.166;4.760;2023-05-10T15:39:51;17.20;99.90
27384;DHT22;14851;51.166;4.760;2023-05-10T15:42:17;17.10;99.90
27384;DHT22;14851;51.166;4.760;2023-05-10T15:44:45;17.00;99.90
27384;DHT22;14851;51.166;4.760;2023-05-10T15:47:15;17.00;99.90
27384;DHT22;14851;51.166;4.760;2023-05-10T15:49:41;16.90;99.90
27384;DHT22;14851;51.166;4.760;2023-05-10T15:52:07;16.90;99.90
27384;DHT22;14851;51.166;4.760;2023-05-10T15:54:33;16.80;99.90
27384;DHT22;14851;51.166;4.760;2023-05-10T15:56:58;16.70;99.90
27384;DHT22;14851;51.166;4.760;2023-05-10T15:59:27;16.60;99.90
27384;DHT22;14851;51.166;4.760;2023-05-10T16:01:53;16.50;99.90
27384;DHT22;14851;51.166;4.760;2023-05-10T16:04:22;16.50;99.90
27384;DHT22;14851;51.166;4.760;2023-05-10T16:06:48;16.50;99.90
27384;DHT22;14851;51.166;4.760;2023-05-10T16:09:14;16.50;99.90